createdAt,value
2019-05-10T00:01:27.952Z,96837.90
2019-05-10T00:04:17.201Z,96839.00
2019-05-10T00:07:06.679Z,96842.05
2019-05-10T00:09:37.583Z,96838.83
2019-05-10T00:12:21.874Z,96846.53
2019-05-10T00:14:55.107Z,96851.50
2019-05-10T00:17:27.221Z,96853.56
2019-05-10T00:19:59.301Z,96853.56
2019-05-10T00:22:31.772Z,96849.04
2019-05-10T00:25:05.145Z,96850.50
2019-05-10T00:27:37.384Z,96851.47
2019-05-10T00:30:09.951Z,96852.42
2019-05-10T00:32:42.383Z,96848.70
2019-05-10T00:35:14.896Z,96855.61
2019-05-10T00:37:46.923Z,96860.92
2019-05-10T00:40:19.320Z,96860.43
2019-05-10T00:42:51.423Z,96864.12
2019-05-10T00:45:23.509Z,96864.80
2019-05-10T00:47:55.614Z,96865.92
2019-05-10T00:50:27.691Z,96863.67
2019-05-10T00:53:00.121Z,96868.00
2019-05-10T00:55:32.623Z,96870.07
2019-05-10T00:58:05.163Z,96872.33
2019-05-10T01:00:37.296Z,96876.37
2019-05-10T01:03:10.837Z,96880.72
2019-05-10T01:05:42.922Z,96875.54
2019-05-10T01:08:15.040Z,96876.67
2019-05-10T01:10:47.114Z,96880.14
2019-05-10T01:13:19.658Z,96885.96
2019-05-10T01:15:51.738Z,96883.09
2019-05-10T01:18:23.769Z,96887.27
2019-05-10T01:20:56.310Z,96890.81
2019-05-10T01:23:28.431Z,96895.17
2019-05-10T01:26:00.553Z,96895.65
2019-05-10T01:28:32.668Z,96897.41
2019-05-10T01:31:05.176Z,96899.95
2019-05-10T01:33:37.985Z,96908.02
2019-05-10T01:36:10.052Z,96909.00
2019-05-10T01:38:42.160Z,96916.06
2019-05-10T01:41:14.802Z,96918.12
2019-05-10T01:43:46.921Z,96921.02
2019-05-10T01:46:18.986Z,96926.78
2019-05-10T01:48:51.084Z,96928.69
2019-05-10T01:51:23.191Z,96927.25
2019-05-10T01:53:55.301Z,96930.59
2019-05-10T01:56:27.426Z,96935.57
2019-05-10T01:58:59.549Z,96935.58
2019-05-10T02:01:31.657Z,96942.81
2019-05-10T02:04:03.975Z,96945.21
2019-05-10T02:06:36.459Z,96943.80
2019-05-10T02:09:09.774Z,96942.04
2019-05-10T02:11:42.196Z,96948.63
2019-05-10T02:14:14.747Z,96944.87
2019-05-10T02:16:47.191Z,96949.05
2019-05-10T02:19:19.635Z,96956.02
2019-05-10T02:21:52.158Z,96960.36
2019-05-10T02:24:24.526Z,96959.86
2019-05-10T02:26:56.687Z,96965.78
2019-05-10T02:29:28.799Z,96974.67
2019-05-10T02:32:01.236Z,96971.78
2019-05-10T02:34:33.982Z,96975.95
2019-05-10T02:37:06.105Z,96975.03
2019-05-10T02:39:38.213Z,96975.14
2019-05-10T02:42:11.079Z,96980.59
2019-05-10T02:44:43.240Z,96986.70
2019-05-10T02:47:15.361Z,96991.10
2019-05-10T02:49:47.463Z,96993.38
2019-05-10T02:52:20.518Z,96991.74
2019-05-10T02:54:52.854Z,96995.55
2019-05-10T02:57:26.191Z,96997.28
2019-05-10T03:00:00.104Z,96990.80
2019-05-10T03:02:33.526Z,96992.72
2019-05-10T03:05:06.315Z,97001.41
2019-05-10T03:07:40.960Z,97003.64
2019-05-10T03:10:14.280Z,97014.23
2019-05-10T03:12:48.176Z,97013.59
2019-05-10T03:15:21.196Z,97017.30
2019-05-10T03:17:56.551Z,97010.95
2019-05-10T03:20:30.401Z,97019.42
2019-05-10T03:23:04.422Z,97023.70
2019-05-10T03:25:36.735Z,97022.98
2019-05-10T03:28:09.159Z,97019.73
2019-05-10T03:30:41.375Z,97029.34
2019-05-10T03:33:13.907Z,97036.36
2019-05-10T03:35:46.457Z,97034.38
2019-05-10T03:38:20.132Z,97039.91
2019-05-10T03:40:53.103Z,97049.48
2019-05-10T03:43:25.637Z,97047.56
2019-05-10T03:45:58.181Z,97056.70
2019-05-10T03:48:30.614Z,97059.22
2019-05-10T03:51:03.130Z,97060.54
2019-05-10T03:53:35.723Z,97071.77
2019-05-10T03:56:07.887Z,97071.59
2019-05-10T03:58:40.312Z,97080.61
2019-05-10T04:01:13.066Z,97079.21
2019-05-10T04:03:45.175Z,97079.75
2019-05-10T04:06:17.827Z,97080.70
2019-05-10T04:08:51.195Z,97084.73
2019-05-10T04:11:23.350Z,97082.98
2019-05-10T04:13:55.483Z,97084.80
2019-05-10T04:16:27.587Z,97089.34
2019-05-10T04:18:59.691Z,97096.34
2019-05-10T04:21:32.242Z,97097.84
2019-05-10T04:24:04.551Z,97098.18
2019-05-10T04:26:37.861Z,97099.86
2019-05-10T04:29:10.685Z,97100.91
2019-05-10T04:31:43.231Z,97102.31
2019-05-10T04:34:16.091Z,97099.53
2019-05-10T04:36:48.532Z,97100.59
2019-05-10T04:39:20.636Z,97103.08
2019-05-10T04:41:53.172Z,97104.41
2019-05-10T04:44:25.295Z,97109.33
2019-05-10T04:46:58.400Z,97111.28
2019-05-10T04:49:30.520Z,97115.04
2019-05-10T04:52:03.372Z,97121.44
2019-05-10T04:54:35.489Z,97123.36
2019-05-10T04:57:07.915Z,97121.13
2019-05-10T04:59:40.043Z,97125.16
2019-05-10T05:02:12.166Z,97130.78
2019-05-10T05:04:44.312Z,97132.92
2019-05-10T05:07:16.834Z,97128.99
2019-05-10T05:09:48.951Z,97133.64
2019-05-10T05:12:21.744Z,97136.19
2019-05-10T05:14:53.824Z,97143.22
2019-05-10T05:17:25.942Z,97147.56
2019-05-10T05:19:58.084Z,97149.06
2019-05-10T05:22:30.525Z,97152.46
2019-05-10T05:25:03.834Z,97153.15
2019-05-10T05:27:36.474Z,97155.73
2019-05-10T05:30:10.123Z,97157.93
2019-05-10T05:32:44.297Z,97156.28
2019-05-10T05:35:17.041Z,97156.73
2019-05-10T05:37:49.154Z,97154.38
2019-05-10T05:40:24.386Z,97166.30
2019-05-10T05:42:57.362Z,97165.33
2019-05-10T05:45:33.918Z,97169.80
2019-05-10T05:48:07.497Z,97170.20
2019-05-10T05:50:39.616Z,97170.77
2019-05-10T05:53:11.731Z,97176.66
2019-05-10T05:55:43.848Z,97170.11
2019-05-10T05:58:25.656Z,97179.06
2019-05-10T06:00:50.754Z,97178.03
2019-05-10T06:03:29.379Z,97176.23
2019-05-10T06:05:58.681Z,97170.62
2019-05-10T06:08:30.794Z,97168.22
2019-05-10T06:11:03.426Z,97175.55
2019-05-10T06:13:35.535Z,97174.83
2019-05-10T06:16:12.962Z,97182.05
2019-05-10T06:18:46.690Z,97189.98
2019-05-10T06:21:17.740Z,97193.94
2019-05-10T06:23:49.585Z,97203.39
2019-05-10T06:26:28.095Z,97204.36
2019-05-10T06:28:59.801Z,97201.64
2019-05-10T06:31:29.541Z,97207.23
2019-05-10T06:34:02.067Z,97214.61
2019-05-10T06:36:34.202Z,97206.02
2019-05-10T06:39:08.858Z,97207.25
2019-05-10T06:41:40.974Z,97208.73
2019-05-10T06:44:13.111Z,97212.54
2019-05-10T06:46:45.960Z,97206.54
2019-05-10T06:49:18.079Z,97211.16
2019-05-10T06:51:51.038Z,97211.31
2019-05-10T06:54:23.379Z,97210.05
2019-05-10T06:56:56.339Z,97205.73
2019-05-10T06:59:28.775Z,97200.59
2019-05-10T07:02:01.317Z,97203.46
2019-05-10T07:04:37.854Z,97200.56
2019-05-10T07:07:10.226Z,97209.00
2019-05-10T07:10:04.175Z,97198.97
2019-05-10T07:12:18.298Z,97196.90
2019-05-10T07:14:50.403Z,97201.41
2019-05-10T07:17:22.509Z,97201.14
2019-05-10T07:19:55.379Z,97210.63
2019-05-10T07:22:29.052Z,97209.67
2019-05-10T07:25:04.066Z,97218.98
2019-05-10T07:27:38.176Z,97216.80
2019-05-10T07:30:10.237Z,97215.95
2019-05-10T07:32:42.674Z,97215.44
2019-05-10T07:35:15.421Z,97224.57
2019-05-10T07:37:51.739Z,97221.54
2019-05-10T07:40:21.805Z,97218.89
2019-05-10T07:42:54.338Z,97225.39
2019-05-10T07:45:27.350Z,97222.93
2019-05-10T07:48:02.576Z,97217.42
2019-05-10T07:50:34.751Z,97217.59
2019-05-10T07:53:06.871Z,97226.09
2019-05-10T07:55:38.987Z,97231.20
2019-05-10T07:58:11.111Z,97229.97
2019-05-10T08:00:46.668Z,97228.81
2019-05-10T08:03:23.381Z,97231.53
2019-05-10T08:05:55.002Z,97229.79
2019-05-10T08:08:25.609Z,97228.02
2019-05-10T08:10:59.354Z,97232.08
2019-05-10T08:13:31.780Z,97236.00
2019-05-10T08:16:05.373Z,97235.45
2019-05-10T08:18:42.048Z,97245.27
2019-05-10T08:21:21.709Z,97250.70
2019-05-10T08:23:47.098Z,97248.80
2019-05-10T08:26:22.495Z,97247.84
2019-05-10T08:28:53.335Z,97246.27
2019-05-10T08:31:26.521Z,97243.13
2019-05-10T08:34:02.101Z,97243.01
2019-05-10T08:36:37.348Z,97238.28
2019-05-10T08:39:11.001Z,97242.36
2019-05-10T08:41:45.524Z,97241.56
2019-05-10T08:44:21.044Z,97249.55
2019-05-10T08:46:52.495Z,97238.00
2019-05-10T08:49:31.392Z,97244.43
2019-05-10T08:51:59.465Z,97240.98
2019-05-10T08:54:32.867Z,97235.48
2019-05-10T08:57:05.544Z,97250.22
2019-05-10T08:59:37.996Z,97247.77
2019-05-10T09:02:12.595Z,97245.50
2019-05-10T09:04:49.934Z,97237.06
2019-05-10T09:07:18.570Z,97250.84
2019-05-10T09:09:53.107Z,97242.52
2019-05-10T09:12:25.188Z,97245.03
2019-05-10T09:15:05.730Z,97244.11
2019-05-10T09:17:32.463Z,97246.92
2019-05-10T09:20:05.086Z,97245.34
2019-05-10T09:22:38.631Z,97243.56
2019-05-10T09:25:12.907Z,97257.30
2019-05-10T09:27:45.251Z,97246.39
2019-05-10T09:30:35.007Z,97254.99
2019-05-10T09:33:08.805Z,97247.58
2019-05-10T09:35:46.779Z,97260.71
2019-05-10T09:38:13.015Z,97262.88
2019-05-10T09:40:51.429Z,97254.89
2019-05-10T09:43:23.564Z,97267.39
2019-05-10T09:45:53.604Z,97261.41
2019-05-10T09:48:26.041Z,97259.69
2019-05-10T09:51:03.436Z,97270.25
2019-05-10T09:53:33.320Z,97269.61
2019-05-10T09:56:07.909Z,97272.13
2019-05-10T09:58:40.078Z,97263.75
2019-05-10T10:01:17.974Z,97257.55
2019-05-10T10:03:48.288Z,97254.56
2019-05-10T10:06:20.852Z,97252.37
2019-05-10T10:08:53.540Z,97256.33
2019-05-10T10:11:27.800Z,97250.72
2019-05-10T10:14:02.180Z,97251.18
2019-05-10T10:16:34.702Z,97259.34
2019-05-10T10:19:07.265Z,97241.20
2019-05-10T10:21:40.209Z,97248.93
2019-05-10T10:24:17.411Z,97252.27
2019-05-10T10:26:48.196Z,97238.36
2019-05-10T10:29:20.133Z,97234.17
2019-05-10T10:31:55.541Z,97245.49
2019-05-10T10:34:27.256Z,97252.86
2019-05-10T10:36:59.733Z,97245.33
2019-05-10T10:39:33.036Z,97246.25
2019-05-10T10:42:08.804Z,97239.80
2019-05-10T10:44:40.623Z,97239.08
2019-05-10T10:47:13.204Z,97239.00
2019-05-10T10:49:45.745Z,97254.34
2019-05-10T10:52:17.862Z,97253.27
2019-05-10T10:54:50.290Z,97253.31
2019-05-10T10:57:22.340Z,97248.47
2019-05-10T10:59:54.806Z,97239.45
2019-05-10T11:02:33.100Z,97232.09
2019-05-10T11:05:01.950Z,97241.33
2019-05-10T11:07:38.092Z,97230.69
2019-05-10T11:10:16.101Z,97230.53
2019-05-10T11:12:42.934Z,97231.45
2019-05-10T11:15:16.402Z,97240.40
2019-05-10T11:17:50.674Z,97230.06
2019-05-10T11:20:23.172Z,97240.13
2019-05-10T11:22:55.387Z,97249.92
2019-05-10T11:25:27.630Z,97236.66
2019-05-10T11:28:01.775Z,97250.56
2019-05-10T11:30:34.904Z,97250.48
2019-05-10T11:33:22.883Z,97256.33
2019-05-10T11:35:41.673Z,97241.91
2019-05-10T11:38:16.229Z,97237.28
2019-05-10T11:40:47.978Z,97241.94
2019-05-10T11:43:27.031Z,97240.23
2019-05-10T11:46:01.245Z,97240.94
2019-05-10T11:48:37.096Z,97232.27
2019-05-10T11:51:12.455Z,97243.66
2019-05-10T11:53:41.701Z,97244.65
2019-05-10T11:56:15.585Z,97241.17
2019-05-10T11:58:54.894Z,97250.98
2019-05-10T12:01:22.330Z,97245.80
2019-05-10T12:03:54.960Z,97243.70
2019-05-10T12:06:27.075Z,97237.84
2019-05-10T12:09:02.102Z,97240.02
2019-05-10T12:14:07.804Z,97239.31
2019-05-10T12:16:41.961Z,97241.45
2019-05-10T12:19:20.740Z,97240.13
2019-05-10T12:21:55.607Z,97245.07
2019-05-10T12:24:39.024Z,97237.97
2019-05-10T12:26:06.387Z,97237.52
2019-05-10T12:29:31.635Z,97240.68
2019-05-10T12:32:04.331Z,97247.01
2019-05-10T12:34:36.461Z,97241.41
2019-05-10T12:37:09.323Z,97244.50
2019-05-10T12:39:41.450Z,97248.94
2019-05-10T12:42:14.559Z,97246.92
2019-05-10T12:44:48.244Z,97242.92
2019-05-10T12:47:21.480Z,97237.68
2019-05-10T12:50:01.810Z,97245.20
2019-05-10T12:52:28.595Z,97248.19
2019-05-10T12:55:01.380Z,97253.52
2019-05-10T12:57:33.921Z,97252.50
2019-05-10T13:00:13.304Z,97252.32
2019-05-10T13:02:44.688Z,97250.86
2019-05-10T13:05:16.269Z,97255.94
2019-05-10T13:07:48.784Z,97257.70
2019-05-10T13:10:21.533Z,97260.63
2019-05-10T13:12:54.367Z,97256.33
2019-05-10T13:15:31.239Z,97246.74
2019-05-10T13:18:00.767Z,97259.11
2019-05-10T13:20:36.760Z,97254.16
2019-05-10T13:23:09.991Z,97265.77
2019-05-10T13:25:40.794Z,97259.83
2019-05-10T13:28:13.031Z,97264.98
2019-05-10T13:30:45.567Z,97266.09
2019-05-10T13:33:28.444Z,97262.50
2019-05-10T13:35:56.670Z,97265.30
2019-05-10T13:38:27.480Z,97266.41
2019-05-10T13:40:59.596Z,97269.47
2019-05-10T13:43:32.636Z,97257.70
2019-05-10T13:46:04.843Z,97269.55
2019-05-10T13:48:37.696Z,97274.02
2019-05-10T13:51:10.224Z,97275.60
2019-05-10T13:53:42.338Z,97279.22
2019-05-10T13:56:14.819Z,97275.02
2019-05-10T13:58:47.245Z,97280.34
2019-05-10T14:01:19.675Z,97274.05
2019-05-10T14:04:00.356Z,97276.11
2019-05-10T14:06:25.846Z,97274.21
2019-05-10T14:08:58.390Z,97266.70
2019-05-10T14:11:34.227Z,97263.52
2019-05-10T14:14:04.941Z,97265.81
2019-05-10T14:16:38.440Z,97269.31
2019-05-10T14:19:15.928Z,97253.58
2019-05-10T14:21:45.081Z,97255.18
2019-05-10T14:24:19.848Z,97249.36
2019-05-10T14:26:57.255Z,97249.20
2019-05-10T14:29:34.314Z,97244.16
2019-05-10T14:32:00.151Z,97244.31
2019-05-10T14:34:38.062Z,97245.50
2019-05-10T14:37:07.051Z,97253.02
2019-05-10T14:39:39.791Z,97246.29
2019-05-10T14:42:11.864Z,97255.06
2019-05-10T14:44:44.500Z,97248.60
2019-05-10T14:47:16.665Z,97253.92
2019-05-10T14:49:48.862Z,97254.47
2019-05-10T14:52:22.675Z,97250.70
2019-05-10T14:54:56.745Z,97261.56
2019-05-10T14:57:29.007Z,97262.27
2019-05-10T15:00:02.714Z,97260.44
2019-05-10T15:02:35.364Z,97267.81
2019-05-10T15:05:16.127Z,97268.49
2019-05-10T15:07:41.678Z,97265.22
2019-05-10T15:10:13.790Z,97271.77
2019-05-10T15:12:46.291Z,97274.76
2019-05-10T15:15:19.256Z,97274.44
2019-05-10T15:17:55.021Z,97273.17
2019-05-10T15:20:25.362Z,97279.89
2019-05-10T15:22:58.283Z,97279.79
2019-05-10T15:25:30.528Z,97278.42
2019-05-10T15:28:02.633Z,97275.91
2019-05-10T15:30:39.215Z,97272.86
2019-05-10T15:33:08.606Z,97276.18
2019-05-10T15:35:45.836Z,97278.61
2019-05-10T15:38:15.522Z,97278.62
2019-05-10T15:40:48.695Z,97275.30
2019-05-10T15:43:20.804Z,97284.33
2019-05-10T15:45:54.986Z,97284.88
2019-05-10T15:48:28.328Z,97291.81
2019-05-10T15:51:00.756Z,97291.92
2019-05-10T15:53:33.195Z,97289.88
2019-05-10T15:56:06.211Z,97290.74
2019-05-10T15:59:23.582Z,97295.97
2019-05-10T16:01:14.387Z,97296.99
2019-05-10T16:03:46.106Z,97300.12
2019-05-10T16:06:18.779Z,97298.68
2019-05-10T16:08:50.858Z,97304.83
2019-05-10T16:11:23.742Z,97307.58
2019-05-10T16:14:00.136Z,97306.44
2019-05-10T16:16:30.394Z,97304.45
2019-05-10T16:19:04.310Z,97305.55
2019-05-10T16:21:36.422Z,97310.73
2019-05-10T16:24:09.385Z,97313.67
2019-05-10T16:26:41.954Z,97307.56
2019-05-10T16:29:14.492Z,97304.67
2019-05-10T16:31:46.927Z,97309.78
2019-05-10T16:34:19.042Z,97305.16
2019-05-10T16:36:51.469Z,97306.00
2019-05-10T16:39:24.003Z,97305.06
2019-05-10T16:41:56.126Z,97304.56
2019-05-10T16:44:28.723Z,97298.70
2019-05-10T16:47:00.831Z,97301.16
2019-05-10T16:49:33.178Z,97306.67
2019-05-10T16:52:05.619Z,97305.20
2019-05-10T16:54:38.161Z,97303.44
2019-05-10T16:57:10.282Z,97315.45
2019-05-10T16:59:42.852Z,97317.28
2019-05-10T17:02:15.287Z,97322.66
2019-05-10T17:04:47.732Z,97318.27
2019-05-10T17:07:20.656Z,97323.13
2019-05-10T17:09:54.578Z,97324.92
2019-05-10T17:12:28.984Z,97325.73
2019-05-10T17:15:02.869Z,97331.90
2019-05-10T17:17:37.140Z,97331.56
2019-05-10T17:20:14.259Z,97340.64
2019-05-10T17:22:43.396Z,97340.48
2019-05-10T17:25:17.234Z,97344.20
2019-05-10T17:27:50.443Z,97341.94
2019-05-10T17:30:27.747Z,97343.25
2019-05-10T17:33:03.301Z,97344.34
2019-05-10T17:35:36.609Z,97343.20
2019-05-10T17:38:07.862Z,97345.33
2019-05-10T17:40:42.227Z,97350.03
2019-05-10T17:43:20.831Z,97353.23
2019-05-10T17:45:48.988Z,97353.20
2019-05-10T17:48:21.111Z,97352.90
2019-05-10T17:50:53.597Z,97349.80
2019-05-10T17:53:27.138Z,97346.53
2019-05-10T17:56:02.769Z,97345.58
2019-05-10T17:58:34.829Z,97340.53
2019-05-10T18:01:08.118Z,97339.53
2019-05-10T18:03:40.878Z,97338.73
2019-05-10T18:06:23.672Z,97344.41
2019-05-10T18:08:47.895Z,97344.52
2019-05-10T18:11:20.013Z,97337.06
2019-05-10T18:13:52.129Z,97343.20
2019-05-10T18:16:24.872Z,97341.91
2019-05-10T18:18:58.088Z,97336.20
2019-05-10T18:21:30.195Z,97337.49
2019-05-10T18:24:02.307Z,97343.78
2019-05-10T18:26:39.595Z,97343.29
2019-05-10T18:29:09.489Z,97348.77
2019-05-10T18:31:42.036Z,97349.70
2019-05-10T18:34:15.256Z,97357.73
2019-05-10T18:36:51.983Z,97363.69
2019-05-10T18:39:21.758Z,97370.27
2019-05-10T18:41:53.872Z,97376.22
2019-05-10T18:44:26.728Z,97379.11
2019-05-10T18:46:59.596Z,97372.30
2019-05-10T18:49:33.002Z,97359.58
2019-05-10T18:52:23.148Z,97360.92
2019-05-10T18:55:06.828Z,97373.41
2019-05-10T18:58:41.193Z,97370.55
2019-05-10T19:01:14.971Z,97376.88
2019-05-10T19:03:49.422Z,97376.17
2019-05-10T19:06:23.089Z,97379.11
2019-05-10T19:08:57.845Z,97380.16
2019-05-10T19:11:38.868Z,97387.17
2019-05-10T19:14:09.345Z,97387.05
2019-05-10T19:16:45.161Z,97392.97
2019-05-10T19:19:18.558Z,97396.24
2019-05-10T19:21:52.571Z,97403.19
2019-05-10T19:24:30.423Z,97400.41
2019-05-10T19:27:07.090Z,97403.69
2019-05-10T19:29:38.544Z,97406.98
2019-05-10T19:32:18.182Z,97404.23
2019-05-10T19:34:56.944Z,97399.50
2019-05-10T19:37:31.391Z,97395.34
2019-05-10T19:39:59.651Z,97383.81
2019-05-10T19:42:51.017Z,97376.65
2019-05-10T19:45:24.533Z,97374.97
2019-05-10T19:47:58.643Z,97375.38
2019-05-10T19:58:10.648Z,97394.56
2019-05-10T20:00:44.241Z,97400.64
2019-05-10T20:03:22.291Z,97407.09
2019-05-10T20:10:41.973Z,97405.83
2019-05-10T20:13:38.250Z,97414.34
2019-05-10T20:16:12.217Z,97417.56
2019-05-10T20:23:26.191Z,97403.86
2019-05-10T20:26:05.248Z,97406.97
2019-05-10T20:28:47.638Z,97408.59
2019-05-10T20:31:20.821Z,97411.52
2019-05-10T20:33:53.918Z,97412.41
2019-05-10T20:36:28.867Z,97403.51
2019-05-10T20:46:21.135Z,97408.24
2019-05-10T20:49:05.708Z,97406.80
2019-05-10T20:51:40.734Z,97405.03
2019-05-10T20:54:14.979Z,97407.41
2019-05-10T20:56:49.674Z,97410.20
2019-05-10T20:59:34.367Z,97412.11
2019-05-10T21:02:08.919Z,97415.83
2019-05-10T21:16:28.330Z,97407.92
2019-05-10T21:19:01.846Z,97413.59
2019-05-10T21:25:06.275Z,97415.17
2019-05-10T21:35:12.947Z,97445.55
2019-05-10T21:45:24.848Z,97452.30
2019-05-10T21:47:58.141Z,97455.95
2019-05-10T22:05:25.235Z,97463.86
